createdAt,value
2019-02-28T00:00:11.244Z,43.08
2019-02-28T00:02:41.801Z,46.53
2019-02-28T00:05:10.564Z,46.25
2019-02-28T00:07:39.465Z,42.10
2019-02-28T00:10:08.433Z,43.28
2019-02-28T00:12:37.401Z,44.18
2019-02-28T00:15:07.594Z,39.78
2019-02-28T00:17:36.785Z,44.90
2019-02-28T00:20:06.839Z,42.95
2019-02-28T00:22:36.874Z,40.95
2019-02-28T00:25:07.134Z,42.20
2019-02-28T00:27:35.995Z,42.98
2019-02-28T00:30:06.918Z,41.92
2019-02-28T00:32:36.257Z,45.28
2019-02-28T00:35:05.685Z,42.27
2019-02-28T00:37:34.697Z,40.33
2019-02-28T00:40:06.606Z,39.50
2019-02-28T00:42:34.446Z,40.12
2019-02-28T00:45:03.766Z,41.88
2019-02-28T00:47:32.943Z,39.45
2019-02-28T00:50:01.815Z,41.60
2019-02-28T00:52:32.095Z,39.83
2019-02-28T00:55:01.073Z,43.68
2019-02-28T00:57:30.061Z,43.98
2019-02-28T00:59:58.726Z,42.17
2019-02-28T01:02:27.361Z,47.95
2019-02-28T01:04:56.065Z,43.85
2019-02-28T01:07:24.824Z,41.85
2019-02-28T01:09:53.514Z,40.83
2019-02-28T01:12:22.266Z,42.20
2019-02-28T01:14:50.884Z,40.63
2019-02-28T01:17:20.916Z,38.83
2019-02-28T01:19:49.893Z,42.98
2019-02-28T01:22:18.563Z,38.78
2019-02-28T01:24:47.397Z,43.78
2019-02-28T01:27:17.321Z,41.50
2019-02-28T01:29:46.714Z,37.30
2019-02-28T01:32:16.286Z,38.33
2019-02-28T01:34:45.131Z,37.55
2019-02-28T01:37:14.181Z,40.28
2019-02-28T01:39:42.997Z,41.18
2019-02-28T01:42:11.942Z,39.55
2019-02-28T01:44:40.999Z,38.70
2019-02-28T01:47:09.815Z,37.50
2019-02-28T01:49:38.464Z,43.40
2019-02-28T01:52:10.072Z,39.30
2019-02-28T01:54:37.874Z,40.25
2019-02-28T01:57:09.028Z,41.02
2019-02-28T01:59:37.316Z,39.23
2019-02-28T02:02:06.937Z,44.03
2019-02-28T02:04:36.166Z,42.17
2019-02-28T02:07:05.169Z,41.15
2019-02-28T02:09:34.132Z,47.38
2019-02-28T02:12:03.100Z,42.40
2019-02-28T02:14:31.855Z,43.85
2019-02-28T02:17:01.078Z,48.45
2019-02-28T02:19:30.638Z,46.10
2019-02-28T02:21:59.534Z,46.20
2019-02-28T02:24:28.924Z,43.38
2019-02-28T02:26:57.833Z,41.80
2019-02-28T02:29:26.662Z,42.90
2019-02-28T02:31:55.733Z,50.40
2019-02-28T02:34:28.287Z,48.42
2019-02-28T02:36:54.919Z,46.37
2019-02-28T02:39:23.651Z,43.08
2019-02-28T02:41:52.255Z,51.40
2019-02-28T02:44:21.321Z,46.02
2019-02-28T02:46:55.441Z,43.60
2019-02-28T02:49:20.419Z,49.53
2019-02-28T02:51:50.597Z,45.50
2019-02-28T02:54:20.190Z,42.45
2019-02-28T02:56:49.587Z,40.95
2019-02-28T02:59:18.581Z,42.58
2019-02-28T03:01:47.745Z,38.38
2019-02-28T03:04:21.432Z,41.10
2019-02-28T03:06:46.983Z,43.98
2019-02-28T03:09:15.661Z,36.23
2019-02-28T03:11:44.642Z,40.58
2019-02-28T03:14:16.517Z,39.58
2019-02-28T03:16:44.101Z,37.78
2019-02-28T03:19:12.876Z,39.63
2019-02-28T03:21:41.770Z,34.75
2019-02-28T03:24:14.799Z,38.73
2019-02-28T03:26:42.045Z,36.63
2019-02-28T03:29:11.815Z,37.50
2019-02-28T03:31:40.440Z,39.35
2019-02-28T03:34:12.920Z,35.03
2019-02-28T03:36:39.296Z,35.23
2019-02-28T03:39:08.249Z,34.58
2019-02-28T03:41:37.163Z,53.17
2019-02-28T03:44:05.995Z,50.20
2019-02-28T03:46:34.631Z,39.08
2019-02-28T03:49:10.987Z,39.67
2019-02-28T03:51:34.465Z,36.23
2019-02-28T03:54:03.493Z,35.70
2019-02-28T03:56:32.584Z,43.33
2019-02-28T03:59:01.352Z,37.10
2019-02-28T04:01:30.007Z,36.13
2019-02-28T04:03:58.772Z,37.10
2019-02-28T04:06:27.674Z,37.60
2019-02-28T04:08:56.805Z,34.48
2019-02-28T04:11:30.775Z,38.45
2019-02-28T04:13:56.923Z,39.18
2019-02-28T04:16:26.044Z,39.78
2019-02-28T04:18:55.046Z,39.78
2019-02-28T04:21:24.253Z,39.25
2019-02-28T04:23:53.087Z,36.35
2019-02-28T04:26:22.287Z,37.45
2019-02-28T04:28:54.658Z,37.95
2019-02-28T04:31:21.607Z,39.30
2019-02-28T04:33:50.528Z,39.45
2019-02-28T04:36:19.708Z,38.67
2019-02-28T04:38:51.739Z,35.52
2019-02-28T04:41:18.917Z,37.63
2019-02-28T04:43:47.934Z,36.63
2019-02-28T04:46:17.041Z,37.35
2019-02-28T04:48:48.428Z,37.88
2019-02-28T04:51:16.296Z,36.25
2019-02-28T04:53:45.175Z,38.70
2019-02-28T04:56:14.188Z,36.53
2019-02-28T04:58:43.103Z,37.88
2019-02-28T05:01:12.383Z,37.28
2019-02-28T05:03:42.226Z,31.87
2019-02-28T05:06:11.289Z,37.60
2019-02-28T05:08:40.007Z,40.05
2019-02-28T05:11:09.116Z,33.02
2019-02-28T05:13:37.831Z,38.95
2019-02-28T05:16:09.399Z,38.55
2019-02-28T05:18:37.411Z,42.10
2019-02-28T05:21:06.235Z,39.70
2019-02-28T05:23:36.043Z,37.53
2019-02-28T05:26:06.210Z,42.13
2019-02-28T05:28:40.278Z,36.53
2019-02-28T05:31:05.597Z,37.45
2019-02-28T05:33:34.565Z,42.27
2019-02-28T05:36:04.313Z,37.00
2019-02-28T05:38:33.346Z,39.18
2019-02-28T05:41:02.404Z,38.60
2019-02-28T05:43:32.211Z,37.23
2019-02-28T05:46:01.918Z,40.43
2019-02-28T05:48:30.968Z,36.05
2019-02-28T05:50:59.926Z,39.60
2019-02-28T05:53:29.004Z,37.35
2019-02-28T05:55:59.730Z,37.67
2019-02-28T05:58:28.115Z,39.40
2019-02-28T06:00:57.314Z,40.40
2019-02-28T06:03:26.047Z,41.53
2019-02-28T06:05:55.022Z,39.67
2019-02-28T06:08:23.914Z,46.68
2019-02-28T06:10:56.059Z,41.00
2019-02-28T06:13:23.549Z,42.17
2019-02-28T06:15:52.165Z,43.33
2019-02-28T06:18:21.204Z,39.73
2019-02-28T06:20:51.559Z,45.67
2019-02-28T06:23:20.872Z,45.43
2019-02-28T06:25:50.017Z,38.05
2019-02-28T06:28:18.844Z,46.10
2019-02-28T06:30:47.777Z,42.83
2019-02-28T06:33:16.551Z,44.58
2019-02-28T06:35:45.506Z,39.00
2019-02-28T06:38:16.259Z,40.88
2019-02-28T06:40:46.628Z,47.17
2019-02-28T06:43:18.733Z,45.05
2019-02-28T06:45:46.204Z,44.63
2019-02-28T06:48:14.932Z,42.13
2019-02-28T06:50:44.654Z,47.05
2019-02-28T06:53:14.774Z,50.33
2019-02-28T06:55:49.750Z,49.77
2019-02-28T06:58:18.757Z,49.50
2019-02-28T07:00:49.027Z,44.20
2019-02-28T07:03:18.398Z,49.00
2019-02-28T07:05:47.391Z,47.08
2019-02-28T07:08:16.429Z,48.70
2019-02-28T07:10:48.381Z,51.20
2019-02-28T07:13:17.040Z,48.63
2019-02-28T07:15:45.810Z,49.77
2019-02-28T07:18:14.496Z,48.08
2019-02-28T07:20:43.463Z,50.23
2019-02-28T07:23:12.384Z,47.70
2019-02-28T07:25:41.202Z,57.13
2019-02-28T07:28:10.350Z,52.48
2019-02-28T07:30:39.438Z,57.00
2019-02-28T07:33:10.565Z,55.50
2019-02-28T07:35:39.031Z,58.23
2019-02-28T07:38:07.884Z,53.15
2019-02-28T07:40:36.871Z,53.68
2019-02-28T07:43:06.055Z,56.60
2019-02-28T07:45:34.802Z,53.55
2019-02-28T07:48:03.669Z,57.15
2019-02-28T07:50:32.456Z,57.55
2019-02-28T07:53:01.187Z,58.75
2019-02-28T07:55:30.388Z,54.45
2019-02-28T07:57:59.818Z,53.17
2019-02-28T08:00:28.745Z,57.90
2019-02-28T08:02:57.903Z,58.10
2019-02-28T08:05:31.045Z,57.00
2019-02-28T08:07:57.078Z,56.65
2019-02-28T08:10:26.903Z,59.38
2019-02-28T08:12:56.002Z,55.75
2019-02-28T08:15:25.769Z,56.92
2019-02-28T08:17:54.676Z,57.40
2019-02-28T08:20:23.509Z,49.33
2019-02-28T08:22:56.434Z,56.15
2019-02-28T08:25:22.998Z,57.10
2019-02-28T08:27:51.698Z,60.40
2019-02-28T08:30:22.137Z,58.38
2019-02-28T08:32:52.146Z,55.90
2019-02-28T08:35:20.908Z,57.90
2019-02-28T08:37:55.667Z,59.10
2019-02-28T08:40:26.363Z,58.38
2019-02-28T08:42:54.067Z,61.63
2019-02-28T08:45:22.945Z,66.33
2019-02-28T08:47:55.391Z,62.67
2019-02-28T08:50:23.690Z,63.02
2019-02-28T08:52:54.358Z,61.63
2019-02-28T08:55:28.743Z,63.78
2019-02-28T08:57:55.937Z,59.67
2019-02-28T09:00:24.354Z,62.48
2019-02-28T09:02:53.869Z,60.28
2019-02-28T09:05:26.176Z,69.80
2019-02-28T09:07:53.770Z,68.12
2019-02-28T09:10:23.407Z,59.77
2019-02-28T09:12:52.638Z,66.60
2019-02-28T09:15:21.580Z,66.37
2019-02-28T09:17:51.860Z,67.12
2019-02-28T09:20:21.806Z,70.10
2019-02-28T09:22:50.920Z,68.37
2019-02-28T09:25:22.149Z,64.40
2019-02-28T09:27:51.272Z,69.30
2019-02-28T09:30:21.805Z,66.53
2019-02-28T09:32:50.963Z,65.20
2019-02-28T09:35:19.998Z,70.00
2019-02-28T09:37:49.198Z,71.67
2019-02-28T09:40:18.165Z,68.57
2019-02-28T09:42:47.914Z,66.77
2019-02-28T09:45:18.319Z,68.10
2019-02-28T09:47:47.177Z,70.40
2019-02-28T09:50:19.386Z,64.65
2019-02-28T09:52:47.368Z,70.87
2019-02-28T09:55:17.109Z,68.75
2019-02-28T09:57:45.818Z,67.78
2019-02-28T10:00:15.703Z,72.70
2019-02-28T10:02:45.103Z,71.67
2019-02-28T10:05:14.019Z,73.12
2019-02-28T10:07:43.706Z,73.12
2019-02-28T10:10:20.758Z,71.28
2019-02-28T10:12:49.894Z,76.65
2019-02-28T10:15:24.769Z,75.17
2019-02-28T10:17:54.949Z,70.37
2019-02-28T10:20:27.166Z,72.58
2019-02-28T10:22:55.927Z,72.78
2019-02-28T10:25:25.090Z,80.05
2019-02-28T10:27:54.645Z,80.22
2019-02-28T10:30:31.726Z,75.75
2019-02-28T10:32:57.477Z,75.37
2019-02-28T10:35:26.176Z,72.80
2019-02-28T10:37:58.373Z,76.35
2019-02-28T10:40:27.028Z,77.37
2019-02-28T10:42:55.906Z,76.28
2019-02-28T10:45:25.282Z,79.55
2019-02-28T10:47:54.119Z,83.92
2019-02-28T10:50:31.931Z,81.32
2019-02-28T10:52:57.418Z,74.53
2019-02-28T10:55:26.214Z,87.65
2019-02-28T10:57:54.905Z,86.00
2019-02-28T11:00:32.784Z,81.87
2019-02-28T11:03:00.537Z,80.57
2019-02-28T11:05:31.128Z,77.50
2019-02-28T11:07:59.810Z,75.90
2019-02-28T11:10:38.898Z,78.72
2019-02-28T11:13:08.974Z,78.78
2019-02-28T11:15:37.859Z,79.27
2019-02-28T11:18:09.736Z,75.62
2019-02-28T11:20:37.300Z,70.78
2019-02-28T11:23:07.612Z,70.22
2019-02-28T11:25:36.776Z,72.90
2019-02-28T11:28:05.686Z,76.82
2019-02-28T11:30:36.089Z,74.62
2019-02-28T11:33:05.439Z,68.97
2019-02-28T11:35:34.148Z,70.25
2019-02-28T11:38:04.831Z,74.37
2019-02-28T11:40:33.257Z,63.90
2019-02-28T11:43:03.678Z,67.67
2019-02-28T11:45:36.227Z,63.35
2019-02-28T11:48:06.092Z,67.30
2019-02-28T11:50:34.787Z,70.32
2019-02-28T11:53:05.844Z,69.27
2019-02-28T11:55:33.964Z,75.28
2019-02-28T11:58:02.808Z,72.70
2019-02-28T12:00:35.658Z,75.22
2019-02-28T12:03:05.336Z,79.60
2019-02-28T12:05:33.366Z,64.97
2019-02-28T12:08:01.988Z,70.72
2019-02-28T12:10:30.851Z,65.55
2019-02-28T12:12:59.673Z,69.20
2019-02-28T12:15:38.226Z,65.35
2019-02-28T12:18:05.883Z,67.00
2019-02-28T12:20:34.704Z,66.12
2019-02-28T12:23:03.277Z,70.28
2019-02-28T12:25:31.928Z,70.22
2019-02-28T12:28:02.920Z,65.60
2019-02-28T12:30:34.842Z,63.78
2019-02-28T12:33:03.646Z,65.85
2019-02-28T12:35:39.953Z,63.45
2019-02-28T12:38:03.937Z,63.02
2019-02-28T12:40:34.120Z,61.70
2019-02-28T12:43:05.386Z,61.33
2019-02-28T12:45:35.426Z,58.55
2019-02-28T12:48:04.184Z,59.95
2019-02-28T12:50:33.157Z,62.45
2019-02-28T12:53:01.834Z,64.15
2019-02-28T12:55:30.489Z,60.03
2019-02-28T12:57:59.764Z,56.10
2019-02-28T13:00:29.920Z,69.58
2019-02-28T13:02:58.835Z,56.55
2019-02-28T13:05:28.033Z,55.90
2019-02-28T13:07:56.969Z,56.18
2019-02-28T13:10:27.917Z,55.65
2019-02-28T13:13:05.627Z,59.65
2019-02-28T13:15:27.679Z,62.67
2019-02-28T13:17:56.568Z,55.12
2019-02-28T13:20:32.155Z,56.85
2019-02-28T13:22:59.528Z,57.48
2019-02-28T13:25:28.449Z,57.60
2019-02-28T13:27:57.378Z,52.80
2019-02-28T13:30:26.926Z,56.92
2019-02-28T13:32:56.585Z,53.25
2019-02-28T13:35:27.588Z,53.83
2019-02-28T13:37:56.550Z,55.17
2019-02-28T13:40:25.461Z,56.98
2019-02-28T13:42:54.107Z,60.40
2019-02-28T13:45:24.020Z,58.40
2019-02-28T13:47:52.961Z,52.90
2019-02-28T13:50:25.642Z,49.90
2019-02-28T13:52:53.874Z,50.23
2019-02-28T13:55:22.794Z,49.90
2019-02-28T13:57:51.825Z,50.25
2019-02-28T14:00:22.154Z,49.63
2019-02-28T14:02:51.971Z,50.90
2019-02-28T14:05:20.572Z,49.75
2019-02-28T14:07:49.207Z,51.70
2019-02-28T14:10:18.789Z,50.52
2019-02-28T14:12:47.602Z,51.95
2019-02-28T14:15:17.880Z,55.30
2019-02-28T14:17:46.887Z,49.23
2019-02-28T14:20:15.734Z,50.52
2019-02-28T14:22:45.799Z,50.63
2019-02-28T14:25:17.185Z,46.70
2019-02-28T14:27:46.425Z,53.35
2019-02-28T14:30:15.997Z,53.98
2019-02-28T14:32:45.611Z,51.20
2019-02-28T14:35:16.335Z,52.25
2019-02-28T14:37:45.228Z,55.67
2019-02-28T14:40:17.967Z,50.30
2019-02-28T14:42:45.315Z,44.10
2019-02-28T14:45:18.741Z,45.50
2019-02-28T14:47:56.522Z,44.25
2019-02-28T14:50:18.837Z,41.75
2019-02-28T14:52:49.536Z,52.13
2019-02-28T14:55:19.196Z,53.68
2019-02-28T14:57:48.865Z,53.58
2019-02-28T15:00:20.073Z,46.50
2019-02-28T15:02:50.706Z,49.18
2019-02-28T15:05:20.666Z,48.92
2019-02-28T15:07:49.905Z,49.85
2019-02-28T15:10:20.404Z,56.15
2019-02-28T15:12:49.308Z,60.78
2019-02-28T15:15:21.475Z,58.05
2019-02-28T15:17:50.489Z,59.80
2019-02-28T15:20:19.716Z,74.32
2019-02-28T15:22:48.808Z,65.57
2019-02-28T15:25:21.705Z,54.08
2019-02-28T15:27:50.679Z,52.75
2019-02-28T15:30:21.017Z,59.95
2019-02-28T15:32:50.678Z,44.30
2019-02-28T15:35:21.188Z,50.05
2019-02-28T15:37:50.025Z,52.33
2019-02-28T15:40:26.448Z,49.85
2019-02-28T15:42:55.405Z,47.62
2019-02-28T15:45:26.772Z,50.43
2019-02-28T15:47:59.113Z,47.08
2019-02-28T15:50:28.590Z,47.75
2019-02-28T15:52:58.109Z,47.43
2019-02-28T15:55:27.016Z,47.30
2019-02-28T15:57:56.268Z,45.85
2019-02-28T16:00:28.383Z,48.95
2019-02-28T16:02:56.872Z,46.85
2019-02-28T16:05:25.785Z,50.40
2019-02-28T16:07:54.762Z,60.03
2019-02-28T16:10:33.646Z,53.92
2019-02-28T16:13:02.601Z,53.33
2019-02-28T16:15:31.638Z,69.97
2019-02-28T16:18:00.477Z,51.80
2019-02-28T16:20:31.961Z,58.15
2019-02-28T16:23:00.001Z,48.50
2019-02-28T16:25:30.095Z,45.30
2019-02-28T16:27:59.154Z,58.90
2019-02-28T16:30:28.844Z,54.63
2019-02-28T16:32:58.225Z,63.30
2019-02-28T16:35:28.947Z,53.98
2019-02-28T16:37:57.393Z,56.42
2019-02-28T16:40:27.302Z,64.20
2019-02-28T16:42:56.035Z,58.35
2019-02-28T16:45:30.256Z,73.10
2019-02-28T16:48:01.959Z,78.37
2019-02-28T16:50:29.397Z,88.82
2019-02-28T16:52:58.289Z,60.88
2019-02-28T16:55:27.438Z,56.83
2019-02-28T16:57:57.464Z,54.48
2019-02-28T17:00:26.389Z,62.20
2019-02-28T17:02:55.468Z,65.00
2019-02-28T17:05:28.051Z,62.33
2019-02-28T17:07:54.976Z,61.90
2019-02-28T17:10:25.147Z,56.53
2019-02-28T17:13:11.935Z,58.30
2019-02-28T17:15:48.092Z,54.95
2019-02-28T17:18:21.102Z,56.28
2019-02-28T17:20:48.748Z,60.10
2019-02-28T17:23:18.748Z,56.42
2019-02-28T17:25:47.777Z,53.70
2019-02-28T17:28:18.182Z,60.30
2019-02-28T17:30:48.348Z,52.67
2019-02-28T17:33:17.462Z,64.58
2019-02-28T17:35:46.291Z,63.45
2019-02-28T17:38:15.322Z,61.75
2019-02-28T17:40:44.290Z,67.62
2019-02-28T17:43:12.913Z,66.00
2019-02-28T17:45:41.696Z,70.70
2019-02-28T17:48:28.169Z,72.90
2019-02-28T17:51:07.739Z,85.40
2019-02-28T17:53:38.019Z,92.67
2019-02-28T17:56:24.632Z,101.12
2019-02-28T17:59:09.828Z,105.97
2019-02-28T18:01:40.616Z,104.75
2019-02-28T18:04:27.225Z,107.92
2019-02-28T18:06:57.471Z,113.52
2019-02-28T18:09:33.395Z,114.88
2019-02-28T18:12:21.783Z,118.22
2019-02-28T18:14:54.625Z,122.02
2019-02-28T18:17:24.727Z,170.95
2019-02-28T18:19:55.178Z,179.38
2019-02-28T18:22:31.636Z,148.78
2019-02-28T18:25:18.396Z,143.62
2019-02-28T18:28:00.797Z,134.55
2019-02-28T18:30:47.581Z,142.98
2019-02-28T18:33:19.335Z,140.25
2019-02-28T18:35:47.807Z,145.28
2019-02-28T18:38:16.420Z,145.77
2019-02-28T18:40:45.303Z,121.67
2019-02-28T18:43:13.923Z,113.25
2019-02-28T18:45:42.835Z,114.00
2019-02-28T18:48:14.588Z,114.90
2019-02-28T18:50:42.518Z,116.30
2019-02-28T18:53:12.461Z,117.85
2019-02-28T18:55:41.203Z,114.47
2019-02-28T18:58:10.846Z,124.85
2019-02-28T19:00:39.746Z,123.53
2019-02-28T19:03:08.638Z,134.70
2019-02-28T19:05:37.469Z,119.60
2019-02-28T19:08:06.191Z,122.67
2019-02-28T19:10:35.196Z,143.90
2019-02-28T19:13:04.083Z,142.70
2019-02-28T19:15:33.345Z,132.27
2019-02-28T19:18:02.185Z,123.50
2019-02-28T19:20:31.989Z,124.62
2019-02-28T19:23:00.932Z,141.00
2019-02-28T19:25:29.803Z,155.70
2019-02-28T19:27:58.479Z,158.15
2019-02-28T19:30:27.315Z,149.50
2019-02-28T19:32:56.003Z,138.43
2019-02-28T19:35:24.644Z,131.85
2019-02-28T19:37:53.254Z,132.18
2019-02-28T19:40:21.866Z,129.75
2019-02-28T19:42:50.493Z,105.65
2019-02-28T19:45:21.240Z,110.03
2019-02-28T19:47:50.117Z,98.87
2019-02-28T19:50:18.935Z,92.70
2019-02-28T19:52:47.664Z,102.00
2019-02-28T19:55:16.417Z,99.03
2019-02-28T19:57:45.252Z,102.35
2019-02-28T20:00:16.499Z,114.17
2019-02-28T20:02:45.529Z,109.37
2019-02-28T20:05:14.347Z,124.40
2019-02-28T20:07:43.055Z,110.78
2019-02-28T20:10:15.855Z,118.60
2019-02-28T20:12:44.606Z,111.83
